Terminal Aerodrome Forecast
Issued by NWS

Home | Current Version | Previous Version | Text Only | Print | Product List | Glossary On
Versions: 1 2 3 4 5 6 7 8 9 10 11 12 13
000
FTAK31 PANC 292205 AAA
TAFAIL
TAF AMD
PAIL 292205Z 2922/3018 08015G23KT P6SM -SHRA BKN040 OVC060
     FM300600 07015G23KT P6SM VCSH BKN040 OVC060
     FM301200 01018G26KT P6SM VCSH BKN060 OVC100=

USA.gov is the U.S. government's official web portal to all federal, state and local government web resources and services.